sensor_id;sensor_type;location;lat;lon;timestamp;pressure;altitude;pressure_sealevel;temperature;humidity
72950;BME280;64868;45.710;9.590;2023-04-06T00:02:28;99210.72;;;4.09;55.93
72950;BME280;64868;45.710;9.590;2023-04-06T00:05:01;99180.28;;;3.85;56.15
72950;BME280;64868;45.710;9.590;2023-04-06T00:07:34;99218.06;;;4.06;55.44
72950;BME280;64868;45.710;9.590;2023-04-06T00:10:04;99218.81;;;4.09;55.86
72950;BME280;64868;45.710;9.590;2023-04-06T00:12:32;99220.56;;;4.10;55.82
72950;BME280;64868;45.710;9.590;2023-04-06T00:15:02;99127.53;;;3.58;55.07
72950;BME280;64868;45.710;9.590;2023-04-06T00:17:35;99226.00;;;4.09;55.12
72950;BME280;64868;45.710;9.590;2023-04-06T00:20:03;99205.56;;;4.03;55.36
72950;BME280;64868;45.710;9.590;2023-04-06T00:22:33;99222.50;;;4.07;54.81
72950;BME280;64868;45.710;9.590;2023-04-06T00:25:07;99173.13;;;3.84;55.08
72950;BME280;64868;45.710;9.590;2023-04-06T00:27:40;99222.75;;;4.01;55.45
72950;BME280;64868;45.710;9.590;2023-04-06T00:30:12;99213.47;;;4.08;54.69
72950;BME280;64868;45.710;9.590;2023-04-06T00:32:40;99196.25;;;3.90;55.25
72950;BME280;64868;45.710;9.590;2023-04-06T00:35:13;99198.47;;;3.80;55.40
72950;BME280;64868;45.710;9.590;2023-04-06T00:37:45;99202.13;;;3.79;56.35
72950;BME280;64868;45.710;9.590;2023-04-06T00:40:16;99173.13;;;3.64;55.37
72950;BME280;64868;45.710;9.590;2023-04-06T00:42:49;99187.81;;;3.77;55.63
72950;BME280;64868;45.710;9.590;2023-04-06T00:45:17;99205.28;;;3.89;55.85
72950;BME280;64868;45.710;9.590;2023-04-06T00:47:47;99215.31;;;3.85;56.36
72950;BME280;64868;45.710;9.590;2023-04-06T00:50:19;99197.72;;;3.77;55.36
72950;BME280;64868;45.710;9.590;2023-04-06T00:52:52;99207.38;;;3.82;55.20
72950;BME280;64868;45.710;9.590;2023-04-06T00:55:25;99201.41;;;3.74;56.05
72950;BME280;64868;45.710;9.590;2023-04-06T00:57:56;99222.06;;;3.75;56.68
72950;BME280;64868;45.710;9.590;2023-04-06T01:00:25;99210.97;;;3.83;56.19
72950;BME280;64868;45.710;9.590;2023-04-06T01:02:58;99191.91;;;3.65;55.79
72950;BME280;64868;45.710;9.590;2023-04-06T01:05:30;99201.69;;;3.68;56.08
72950;BME280;64868;45.710;9.590;2023-04-06T01:08:04;99211.41;;;3.72;56.06
72950;BME280;64868;45.710;9.590;2023-04-06T01:10:34;99202.25;;;3.76;55.57
72950;BME280;64868;45.710;9.590;2023-04-06T01:13:02;99200.34;;;3.78;54.44
72950;BME280;64868;45.710;9.590;2023-04-06T01:15:32;99211.28;;;3.75;56.21
72950;BME280;64868;45.710;9.590;2023-04-06T01:18:03;99178.94;;;3.75;55.21
72950;BME280;64868;45.710;9.590;2023-04-06T01:20:36;99190.75;;;3.71;55.38
72950;BME280;64868;45.710;9.590;2023-04-06T01:23:08;99200.19;;;3.61;54.96
72950;BME280;64868;45.710;9.590;2023-04-06T01:25:41;99201.00;;;3.63;55.90
72950;BME280;64868;45.710;9.590;2023-04-06T01:28:09;99210.16;;;3.59;56.48
72950;BME280;64868;45.710;9.590;2023-04-06T01:30:41;99154.16;;;3.23;55.10
72950;BME280;64868;45.710;9.590;2023-04-06T01:33:11;99193.63;;;3.46;55.29
72950;BME280;64868;45.710;9.590;2023-04-06T01:35:44;99214.03;;;3.52;56.46
72950;BME280;64868;45.710;9.590;2023-04-06T01:38:17;99180.81;;;3.29;56.03
72950;BME280;64868;45.710;9.590;2023-04-06T01:40:49;99196.53;;;3.41;55.48
72950;BME280;64868;45.710;9.590;2023-04-06T01:43:22;99202.69;;;3.44;54.88
72950;BME280;64868;45.710;9.590;2023-04-06T01:45:54;99195.00;;;3.34;55.89
72950;BME280;64868;45.710;9.590;2023-04-06T01:48:27;99209.56;;;3.30;55.63
72950;BME280;64868;45.710;9.590;2023-04-06T01:51:00;99213.81;;;3.36;56.49
72950;BME280;64868;45.710;9.590;2023-04-06T01:53:32;99200.63;;;3.28;56.28
72950;BME280;64868;45.710;9.590;2023-04-06T01:56:05;99209.34;;;3.35;57.14
72950;BME280;64868;45.710;9.590;2023-04-06T01:58:35;99213.00;;;3.34;56.47
72950;BME280;64868;45.710;9.590;2023-04-06T02:01:07;99172.19;;;3.21;55.81
72950;BME280;64868;45.710;9.590;2023-04-06T02:03:37;99208.47;;;3.34;55.60
72950;BME280;64868;45.710;9.590;2023-04-06T02:06:07;99214.19;;;3.27;56.70
72950;BME280;64868;45.710;9.590;2023-04-06T02:08:38;99201.59;;;3.27;56.65
72950;BME280;64868;45.710;9.590;2023-04-06T02:11:10;99201.13;;;3.16;56.72
72950;BME280;64868;45.710;9.590;2023-04-06T02:13:42;99222.06;;;3.31;55.05
72950;BME280;64868;45.710;9.590;2023-04-06T02:16:13;99199.88;;;3.25;55.96
72950;BME280;64868;45.710;9.590;2023-04-06T02:18:45;99208.91;;;3.24;55.09
72950;BME280;64868;45.710;9.590;2023-04-06T02:21:18;99209.91;;;3.21;56.60
72950;BME280;64868;45.710;9.590;2023-04-06T02:23:51;99175.81;;;2.98;56.50
72950;BME280;64868;45.710;9.590;2023-04-06T02:26:23;99192.72;;;3.02;56.52
72950;BME280;64868;45.710;9.590;2023-04-06T02:28:56;99201.94;;;3.40;54.94
72950;BME280;64868;45.710;9.590;2023-04-06T02:31:28;99144.09;;;2.83;55.73
72950;BME280;64868;45.710;9.590;2023-04-06T02:33:59;99201.22;;;3.14;57.20
72950;BME280;64868;45.710;9.590;2023-04-06T02:36:31;99173.06;;;2.76;57.87
72950;BME280;64868;45.710;9.590;2023-04-06T02:39:04;99192.53;;;2.84;56.44
72950;BME280;64868;45.710;9.590;2023-04-06T02:41:34;99199.41;;;2.91;58.03
72950;BME280;64868;45.710;9.590;2023-04-06T02:44:04;99196.09;;;3.07;57.72
72950;BME280;64868;45.710;9.590;2023-04-06T02:46:34;99189.47;;;2.93;56.89
72950;BME280;64868;45.710;9.590;2023-04-06T02:49:05;99179.94;;;2.85;57.20
72950;BME280;64868;45.710;9.590;2023-04-06T02:51:38;99206.16;;;3.03;57.35
72950;BME280;64868;45.710;9.590;2023-04-06T02:54:08;99142.13;;;2.64;56.94
72950;BME280;64868;45.710;9.590;2023-04-06T02:56:36;99193.66;;;3.01;56.33
72950;BME280;64868;45.710;9.590;2023-04-06T02:59:08;99162.72;;;2.89;57.37
72950;BME280;64868;45.710;9.590;2023-04-06T03:01:40;99177.28;;;2.83;56.79
72950;BME280;64868;45.710;9.590;2023-04-06T03:04:13;99162.91;;;2.84;56.17
72950;BME280;64868;45.710;9.590;2023-04-06T03:06:43;99189.03;;;3.04;56.05
72950;BME280;64868;45.710;9.590;2023-04-06T03:09:16;99149.28;;;2.65;56.45
72950;BME280;64868;45.710;9.590;2023-04-06T03:11:49;99156.78;;;2.81;56.74
72950;BME280;64868;45.710;9.590;2023-04-06T03:14:19;99174.56;;;2.85;57.89
72950;BME280;64868;45.710;9.590;2023-04-06T03:16:50;99180.69;;;2.88;56.61
72950;BME280;64868;45.710;9.590;2023-04-06T03:19:20;99187.84;;;2.66;56.94
72950;BME280;64868;45.710;9.590;2023-04-06T03:21:50;99201.19;;;2.69;57.29
72950;BME280;64868;45.710;9.590;2023-04-06T03:24:23;99204.22;;;2.60;57.41
72950;BME280;64868;45.710;9.590;2023-04-06T03:26:56;99189.22;;;2.76;56.75
72950;BME280;64868;45.710;9.590;2023-04-06T03:29:26;99177.53;;;2.54;57.81
72950;BME280;64868;45.710;9.590;2023-04-06T03:31:57;99158.66;;;2.55;56.80
72950;BME280;64868;45.710;9.590;2023-04-06T03:34:29;99171.44;;;2.72;56.58
72950;BME280;64868;45.710;9.590;2023-04-06T03:37:02;99165.59;;;2.61;57.43
72950;BME280;64868;45.710;9.590;2023-04-06T03:39:30;99197.75;;;2.65;58.59
72950;BME280;64868;45.710;9.590;2023-04-06T03:41:58;99194.16;;;2.65;57.48
72950;BME280;64868;45.710;9.590;2023-04-06T03:44:30;99187.28;;;2.58;57.91
72950;BME280;64868;45.710;9.590;2023-04-06T03:47:00;99158.41;;;2.38;58.10
72950;BME280;64868;45.710;9.590;2023-04-06T03:49:33;99189.81;;;2.61;57.90
72950;BME280;64868;45.710;9.590;2023-04-06T03:52:00;99158.94;;;2.48;57.73
72950;BME280;64868;45.710;9.590;2023-04-06T03:54:33;99177.53;;;2.54;57.89
72950;BME280;64868;45.710;9.590;2023-04-06T03:57:01;99169.72;;;2.48;57.68
72950;BME280;64868;45.710;9.590;2023-04-06T03:59:34;99193.13;;;2.69;57.70
72950;BME280;64868;45.710;9.590;2023-04-06T04:02:06;99181.75;;;2.61;57.89
72950;BME280;64868;45.710;9.590;2023-04-06T04:04:38;99148.19;;;2.48;57.43
72950;BME280;64868;45.710;9.590;2023-04-06T04:07:11;99201.94;;;2.73;57.60
72950;BME280;64868;45.710;9.590;2023-04-06T04:09:44;99188.16;;;2.80;55.84
72950;BME280;64868;45.710;9.590;2023-04-06T04:12:14;99182.69;;;2.60;57.31
72950;BME280;64868;45.710;9.590;2023-04-06T04:14:46;99188.72;;;2.66;57.27
72950;BME280;64868;45.710;9.590;2023-04-06T04:17:14;99204.09;;;2.63;58.10
72950;BME280;64868;45.710;9.590;2023-04-06T04:19:44;99214.41;;;2.52;58.76
72950;BME280;64868;45.710;9.590;2023-04-06T04:22:17;99192.50;;;2.37;58.60
72950;BME280;64868;45.710;9.590;2023-04-06T04:24:45;99208.06;;;2.53;56.58
72950;BME280;64868;45.710;9.590;2023-04-06T04:27:17;99199.34;;;2.46;57.08
72950;BME280;64868;45.710;9.590;2023-04-06T04:29:50;99174.13;;;2.25;57.77
72950;BME280;64868;45.710;9.590;2023-04-06T04:32:20;99218.06;;;2.49;56.77
72950;BME280;64868;45.710;9.590;2023-04-06T04:34:50;99213.81;;;2.43;58.37
72950;BME280;64868;45.710;9.590;2023-04-06T04:37:23;99208.34;;;2.45;57.90
72950;BME280;64868;45.710;9.590;2023-04-06T04:39:56;99211.91;;;2.46;58.33
72950;BME280;64868;45.710;9.590;2023-04-06T04:42:29;99198.91;;;2.58;57.26
72950;BME280;64868;45.710;9.590;2023-04-06T04:44:56;99221.78;;;2.70;57.31
72950;BME280;64868;45.710;9.590;2023-04-06T04:47:29;99187.28;;;2.58;56.68
72950;BME280;64868;45.710;9.590;2023-04-06T04:50:01;99199.22;;;2.49;57.29
72950;BME280;64868;45.710;9.590;2023-04-06T04:52:32;99170.19;;;2.35;56.78
72950;BME280;64868;45.710;9.590;2023-04-06T04:55:04;99211.59;;;2.78;56.73
72950;BME280;64868;45.710;9.590;2023-04-06T04:57:37;99221.78;;;2.70;57.62
72950;BME280;64868;45.710;9.590;2023-04-06T05:00:10;99193.44;;;2.60;57.56
72950;BME280;64868;45.710;9.590;2023-04-06T05:02:42;99199.09;;;2.77;56.40
72950;BME280;64868;45.710;9.590;2023-04-06T05:05:15;99207.63;;;2.88;55.54
72950;BME280;64868;45.710;9.590;2023-04-06T05:07:47;99222.66;;;2.94;55.64
72950;BME280;64868;45.710;9.590;2023-04-06T05:10:38;99215.25;;;2.99;55.81
72950;BME280;64868;45.710;9.590;2023-04-06T05:13:11;99197.88;;;3.08;55.47
72950;BME280;64868;45.710;9.590;2023-04-06T05:15:43;99215.28;;;3.21;55.72
72950;BME280;64868;45.710;9.590;2023-04-06T05:18:14;99221.06;;;3.12;54.96
72950;BME280;64868;45.710;9.590;2023-04-06T05:20:47;99211.47;;;3.05;55.80
72950;BME280;64868;45.710;9.590;2023-04-06T05:23:19;99206.03;;;3.28;53.45
72950;BME280;64868;45.710;9.590;2023-04-06T05:25:52;99224.47;;;3.39;54.27
72950;BME280;64868;45.710;9.590;2023-04-06T05:28:22;99197.38;;;3.42;54.48
72950;BME280;64868;45.710;9.590;2023-04-06T05:30:55;99173.06;;;3.22;54.28
72950;BME280;64868;45.710;9.590;2023-04-06T05:33:27;99216.69;;;3.53;53.41
72950;BME280;64868;45.710;9.590;2023-04-06T05:35:57;99200.72;;;3.49;53.87
72950;BME280;64868;45.710;9.590;2023-04-06T05:38:30;99222.78;;;3.79;52.12
72950;BME280;64868;45.710;9.590;2023-04-06T05:41:01;99207.00;;;3.70;53.27
72950;BME280;64868;45.710;9.590;2023-04-06T05:43:33;99227.25;;;4.02;53.37
72950;BME280;64868;45.710;9.590;2023-04-06T05:46:03;99193.28;;;3.96;52.36
72950;BME280;64868;45.710;9.590;2023-04-06T05:48:36;99220.25;;;4.17;52.66
72950;BME280;64868;45.710;9.590;2023-04-06T05:51:09;99209.09;;;4.26;50.91
72950;BME280;64868;45.710;9.590;2023-04-06T05:53:41;99171.53;;;4.21;51.24
72950;BME280;64868;45.710;9.590;2023-04-06T05:56:11;99223.81;;;4.58;50.48
72950;BME280;64868;45.710;9.590;2023-04-06T05:58:41;99229.31;;;4.56;50.39
72950;BME280;64868;45.710;9.590;2023-04-06T06:01:12;99203.75;;;4.45;50.18
72950;BME280;64868;45.710;9.590;2023-04-06T06:03:39;99194.00;;;4.61;49.10
72950;BME280;64868;45.710;9.590;2023-04-06T06:06:09;99210.16;;;4.81;49.56
72950;BME280;64868;45.710;9.590;2023-04-06T06:08:40;99227.44;;;4.96;49.11
72950;BME280;64868;45.710;9.590;2023-04-06T06:11:12;99214.41;;;5.06;48.75
72950;BME280;64868;45.710;9.590;2023-04-06T06:13:43;99206.16;;;5.09;48.56
72950;BME280;64868;45.710;9.590;2023-04-06T06:16:14;99228.50;;;5.31;47.72
72950;BME280;64868;45.710;9.590;2023-04-06T06:18:44;99217.53;;;5.34;48.14
72950;BME280;64868;45.710;9.590;2023-04-06T06:21:14;99212.66;;;5.60;48.00
72950;BME280;64868;45.710;9.590;2023-04-06T06:23:44;99195.31;;;5.64;47.62
72950;BME280;64868;45.710;9.590;2023-04-06T06:26:14;99221.00;;;5.92;47.12
72950;BME280;64868;45.710;9.590;2023-04-06T06:28:42;99224.41;;;6.14;46.15
72950;BME280;64868;45.710;9.590;2023-04-06T06:31:15;99223.59;;;6.29;46.35
72950;BME280;64868;45.710;9.590;2023-04-06T06:33:48;99212.28;;;6.39;45.14
72950;BME280;64868;45.710;9.590;2023-04-06T06:36:21;99226.16;;;9.95;38.18
72950;BME280;64868;45.710;9.590;2023-04-06T06:38:54;99219.13;;;16.10;26.61
72950;BME280;64868;45.710;9.590;2023-04-06T06:41:24;99225.66;;;19.33;22.20
72950;BME280;64868;45.710;9.590;2023-04-06T06:43:54;99220.09;;;20.44;20.45
72950;BME280;64868;45.710;9.590;2023-04-06T06:46:27;99210.72;;;20.29;19.22
72950;BME280;64868;45.710;9.590;2023-04-06T06:48:52;99236.13;;;20.91;18.57
72950;BME280;64868;45.710;9.590;2023-04-06T06:51:25;99198.50;;;21.05;18.52
72950;BME280;64868;45.710;9.590;2023-04-06T06:53:57;99203.75;;;22.50;17.35
72950;BME280;64868;45.710;9.590;2023-04-06T06:56:27;99235.44;;;23.48;16.35
72950;BME280;64868;45.710;9.590;2023-04-06T06:59:00;99251.31;;;24.51;15.05
72950;BME280;64868;45.710;9.590;2023-04-06T07:01:33;99226.03;;;24.23;15.63
72950;BME280;64868;45.710;9.590;2023-04-06T07:04:05;99242.56;;;25.40;14.62
72950;BME280;64868;45.710;9.590;2023-04-06T07:06:38;99249.78;;;26.18;13.60
72950;BME280;64868;45.710;9.590;2023-04-06T07:09:11;99235.59;;;26.61;13.16
72950;BME280;64868;45.710;9.590;2023-04-06T07:11:43;99242.63;;;27.52;12.69
72950;BME280;64868;45.710;9.590;2023-04-06T07:14:13;99229.69;;;27.64;12.55
72950;BME280;64868;45.710;9.590;2023-04-06T07:16:42;99211.38;;;26.34;13.49
72950;BME280;64868;45.710;9.590;2023-04-06T07:19:10;99242.81;;;26.42;13.40
72950;BME280;64868;45.710;9.590;2023-04-06T07:21:43;99245.56;;;28.17;12.03
72950;BME280;64868;45.710;9.590;2023-04-06T07:24:16;99220.59;;;27.95;11.86
72950;BME280;64868;45.710;9.590;2023-04-06T07:26:46;99248.97;;;28.32;11.47
72950;BME280;64868;45.710;9.590;2023-04-06T07:29:16;99246.84;;;29.92;10.41
72950;BME280;64868;45.710;9.590;2023-04-06T07:31:46;99246.41;;;30.87;9.74
72950;BME280;64868;45.710;9.590;2023-04-06T07:34:19;99246.53;;;31.64;8.60
72950;BME280;64868;45.710;9.590;2023-04-06T07:36:52;99236.69;;;32.89;8.28
72950;BME280;64868;45.710;9.590;2023-04-06T07:39:24;99254.13;;;33.94;7.68
72950;BME280;64868;45.710;9.590;2023-04-06T07:41:57;99253.97;;;33.05;7.72
72950;BME280;64868;45.710;9.590;2023-04-06T07:44:27;99239.84;;;32.64;7.58
72950;BME280;64868;45.710;9.590;2023-04-06T07:46:59;99246.28;;;32.48;7.73
72950;BME280;64868;45.710;9.590;2023-04-06T07:49:30;99234.03;;;31.72;7.65
72950;BME280;64868;45.710;9.590;2023-04-06T07:52:02;99257.50;;;33.12;7.10
72950;BME280;64868;45.710;9.590;2023-04-06T07:54:35;99262.88;;;34.87;6.03
72950;BME280;64868;45.710;9.590;2023-04-06T07:57:08;99254.66;;;34.85;5.07
72950;BME280;64868;45.710;9.590;2023-04-06T07:59:40;99232.72;;;31.98;5.42
72950;BME280;64868;45.710;9.590;2023-04-06T08:02:11;99259.22;;;34.92;5.00
72950;BME280;64868;45.710;9.590;2023-04-06T08:04:39;99238.00;;;36.55;3.97
72950;BME280;64868;45.710;9.590;2023-04-06T08:07:09;99230.63;;;38.09;3.73
72950;BME280;64868;45.710;9.590;2023-04-06T08:09:39;99249.41;;;33.32;4.91
72950;BME280;64868;45.710;9.590;2023-04-06T08:12:09;99241.31;;;33.07;5.38
72950;BME280;64868;45.710;9.590;2023-04-06T08:14:40;99233.69;;;36.47;4.40
72950;BME280;64868;45.710;9.590;2023-04-06T08:17:12;99246.75;;;37.06;4.14
72950;BME280;64868;45.710;9.590;2023-04-06T08:19:45;99212.16;;;34.03;5.02
72950;BME280;64868;45.710;9.590;2023-04-06T08:22:15;99235.16;;;34.06;5.23
72950;BME280;64868;45.710;9.590;2023-04-06T08:24:45;99197.75;;;33.20;5.15
72950;BME280;64868;45.710;9.590;2023-04-06T08:27:13;99205.06;;;32.23;5.85
72950;BME280;64868;45.710;9.590;2023-04-06T08:29:44;99205.09;;;35.15;4.77
72950;BME280;64868;45.710;9.590;2023-04-06T08:32:14;99231.41;;;37.22;4.25
72950;BME280;64868;45.710;9.590;2023-04-06T08:34:45;99212.84;;;35.25;4.23
72950;BME280;64868;45.710;9.590;2023-04-06T08:37:10;99223.69;;;34.57;4.88
72950;BME280;64868;45.710;9.590;2023-04-06T08:39:43;99240.34;;;36.21;4.20
72950;BME280;64868;45.710;9.590;2023-04-06T08:42:14;99224.63;;;37.29;3.81
72950;BME280;64868;45.710;9.590;2023-04-06T08:44:46;99194.88;;;36.16;3.62
72950;BME280;64868;45.710;9.590;2023-04-06T08:47:20;99201.81;;;37.03;3.68
72950;BME280;64868;45.710;9.590;2023-04-06T08:49:50;99197.22;;;35.87;4.15
72950;BME280;64868;45.710;9.590;2023-04-06T08:52:21;99220.34;;;32.91;4.87
72950;BME280;64868;45.710;9.590;2023-04-06T08:54:53;99213.13;;;33.58;5.29
72950;BME280;64868;45.710;9.590;2023-04-06T08:57:21;99165.38;;;31.31;6.41
72950;BME280;64868;45.710;9.590;2023-04-06T08:59:51;99218.31;;;35.31;4.99
72950;BME280;64868;45.710;9.590;2023-04-06T09:02:24;99231.88;;;36.84;4.20
72950;BME280;64868;45.710;9.590;2023-04-06T09:04:54;99212.16;;;34.03;4.46
72950;BME280;64868;45.710;9.590;2023-04-06T09:07:26;99214.66;;;33.49;4.58
72950;BME280;64868;45.710;9.590;2023-04-06T09:09:56;99215.41;;;32.06;5.96
72950;BME280;64868;45.710;9.590;2023-04-06T09:12:34;99197.38;;;32.07;5.39
72950;BME280;64868;45.710;9.590;2023-04-06T09:15:04;99200.56;;;27.98;7.88
72950;BME280;64868;45.710;9.590;2023-04-06T09:17:35;99157.59;;;19.40;13.84
72950;BME280;64868;45.710;9.590;2023-04-06T09:20:08;99142.06;;;16.78;17.44
72950;BME280;64868;45.710;9.590;2023-04-06T09:22:39;99182.78;;;16.16;17.93
72950;BME280;64868;45.710;9.590;2023-04-06T09:25:09;99164.25;;;16.09;19.33
72950;BME280;64868;45.710;9.590;2023-04-06T09:27:43;99189.44;;;15.64;18.99
72950;BME280;64868;45.710;9.590;2023-04-06T09:30:13;99160.88;;;15.36;18.52
72950;BME280;64868;45.710;9.590;2023-04-06T09:32:54;99154.34;;;15.67;18.80
72950;BME280;64868;45.710;9.590;2023-04-06T09:35:27;99172.53;;;15.58;19.61
72950;BME280;64868;45.710;9.590;2023-04-06T09:38:09;99160.22;;;15.22;19.97
72950;BME280;64868;45.710;9.590;2023-04-06T09:40:52;99170.94;;;15.16;19.49
72950;BME280;64868;45.710;9.590;2023-04-06T09:43:29;99130.50;;;15.27;20.20
72950;BME280;64868;45.710;9.590;2023-04-06T09:46:03;99163.34;;;15.79;19.37
72950;BME280;64868;45.710;9.590;2023-04-06T09:48:37;99151.81;;;16.04;19.27
72950;BME280;64868;45.710;9.590;2023-04-06T09:51:11;99154.00;;;15.51;19.27
72950;BME280;64868;45.710;9.590;2023-04-06T09:53:46;99147.56;;;15.31;19.60
72950;BME280;64868;45.710;9.590;2023-04-06T09:56:19;99130.19;;;14.48;19.14
72950;BME280;64868;45.710;9.590;2023-04-06T09:58:55;99134.91;;;15.49;19.84
72950;BME280;64868;45.710;9.590;2023-04-06T10:01:30;99128.66;;;15.88;18.69
72950;BME280;64868;45.710;9.590;2023-04-06T10:06:53;99112.34;;;15.55;19.30
72950;BME280;64868;45.710;9.590;2023-04-06T10:09:28;99125.31;;;16.03;19.66
72950;BME280;64868;45.710;9.590;2023-04-06T10:12:05;99137.50;;;16.11;18.72
72950;BME280;64868;45.710;9.590;2023-04-06T10:14:36;99112.69;;;16.49;18.88
72950;BME280;64868;45.710;9.590;2023-04-06T10:17:09;99116.78;;;16.26;17.82
72950;BME280;64868;45.710;9.590;2023-04-06T10:19:59;99131.03;;;16.97;17.21
72950;BME280;64868;45.710;9.590;2023-04-06T10:22:43;99129.53;;;17.03;18.12
72950;BME280;64868;45.710;9.590;2023-04-06T10:25:14;99115.41;;;15.22;19.15
72950;BME280;64868;45.710;9.590;2023-04-06T10:27:42;99134.13;;;15.68;18.27
72950;BME280;64868;45.710;9.590;2023-04-06T10:30:14;99110.53;;;15.85;18.39
72950;BME280;64868;45.710;9.590;2023-04-06T10:32:46;99091.06;;;16.74;17.70
72950;BME280;64868;45.710;9.590;2023-04-06T10:35:18;99128.78;;;17.75;17.24
72950;BME280;64868;45.710;9.590;2023-04-06T10:37:54;99093.31;;;18.16;16.90
72950;BME280;64868;45.710;9.590;2023-04-06T10:40:32;99100.41;;;17.00;17.14
72950;BME280;64868;45.710;9.590;2023-04-06T10:43:13;99103.31;;;16.13;17.56
72950;BME280;64868;45.710;9.590;2023-04-06T10:45:43;99092.47;;;15.92;18.89
72950;BME280;64868;45.710;9.590;2023-04-06T10:48:18;99108.06;;;16.21;19.24
72950;BME280;64868;45.710;9.590;2023-04-06T10:50:55;99112.72;;;16.20;18.86
72950;BME280;64868;45.710;9.590;2023-04-06T10:53:29;99092.06;;;16.73;18.76
72950;BME280;64868;45.710;9.590;2023-04-06T10:56:02;99092.91;;;15.88;19.04
72950;BME280;64868;45.710;9.590;2023-04-06T10:58:32;99115.09;;;15.55;19.70
72950;BME280;64868;45.710;9.590;2023-04-06T11:01:05;99064.22;;;16.29;19.46
72950;BME280;64868;45.710;9.590;2023-04-06T11:03:44;99111.25;;;14.87;19.96
72950;BME280;64868;45.710;9.590;2023-04-06T11:06:25;99111.69;;;14.92;20.17
72950;BME280;64868;45.710;9.590;2023-04-06T11:08:58;99108.22;;;14.90;20.39
72950;BME280;64868;45.710;9.590;2023-04-06T11:11:31;99046.88;;;15.11;19.74
72950;BME280;64868;45.710;9.590;2023-04-06T11:14:01;99086.09;;;15.72;18.68
72950;BME280;64868;45.710;9.590;2023-04-06T11:16:35;99093.31;;;16.32;18.86
72950;BME280;64868;45.710;9.590;2023-04-06T11:19:06;99075.13;;;16.68;18.85
72950;BME280;64868;45.710;9.590;2023-04-06T11:21:45;99073.59;;;16.36;18.81
72950;BME280;64868;45.710;9.590;2023-04-06T11:24:19;99080.19;;;15.27;19.26
72950;BME280;64868;45.710;9.590;2023-04-06T11:26:53;99064.81;;;15.15;20.25
72950;BME280;64868;45.710;9.590;2023-04-06T11:29:26;99051.44;;;15.60;19.09
72950;BME280;64868;45.710;9.590;2023-04-06T11:32:03;99070.00;;;15.68;19.05
72950;BME280;64868;45.710;9.590;2023-04-06T11:34:42;99015.66;;;15.02;19.50
72950;BME280;64868;45.710;9.590;2023-04-06T11:37:15;99008.53;;;15.78;19.88
72950;BME280;64868;45.710;9.590;2023-04-06T11:39:54;99067.28;;;16.07;19.70
72950;BME280;64868;45.710;9.590;2023-04-06T11:42:30;99034.81;;;16.20;19.14
72950;BME280;64868;45.710;9.590;2023-04-06T11:44:59;99051.19;;;16.78;18.85
72950;BME280;64868;45.710;9.590;2023-04-06T11:47:33;99047.75;;;16.76;19.09
72950;BME280;64868;45.710;9.590;2023-04-06T11:50:13;99052.31;;;16.28;18.86
72950;BME280;64868;45.710;9.590;2023-04-06T11:52:43;99052.75;;;16.34;19.59
72950;BME280;64868;45.710;9.590;2023-04-06T11:55:16;99031.72;;;16.89;19.23
72950;BME280;64868;45.710;9.590;2023-04-06T11:57:47;99025.78;;;16.47;18.70
72950;BME280;64868;45.710;9.590;2023-04-06T12:00:19;99040.84;;;16.52;19.67
72950;BME280;64868;45.710;9.590;2023-04-06T12:02:53;99016.03;;;16.05;19.11
72950;BME280;64868;45.710;9.590;2023-04-06T12:05:23;99024.44;;;16.04;20.22
72950;BME280;64868;45.710;9.590;2023-04-06T12:07:54;99022.84;;;15.82;20.56
72950;BME280;64868;45.710;9.590;2023-04-06T12:10:24;99015.81;;;16.36;20.12
72950;BME280;64868;45.710;9.590;2023-04-06T12:12:55;99020.13;;;16.95;19.22
72950;BME280;64868;45.710;9.590;2023-04-06T12:15:25;98989.53;;;16.51;19.51
72950;BME280;64868;45.710;9.590;2023-04-06T12:17:55;99008.16;;;16.30;19.31
72950;BME280;64868;45.710;9.590;2023-04-06T12:20:25;99017.03;;;16.71;18.77
72950;BME280;64868;45.710;9.590;2023-04-06T12:22:57;99003.41;;;16.69;19.06
72950;BME280;64868;45.710;9.590;2023-04-06T12:25:30;98947.28;;;16.52;18.96
72950;BME280;64868;45.710;9.590;2023-04-06T12:28:00;98980.81;;;16.75;19.20
72950;BME280;64868;45.710;9.590;2023-04-06T12:30:28;98998.34;;;17.02;18.88
72950;BME280;64868;45.710;9.590;2023-04-06T12:32:58;98992.91;;;16.45;19.24
72950;BME280;64868;45.710;9.590;2023-04-06T12:35:32;98972.28;;;16.59;19.40
72950;BME280;64868;45.710;9.590;2023-04-06T12:38:02;98949.25;;;16.60;19.76
72950;BME280;64868;45.710;9.590;2023-04-06T12:40:38;98970.75;;;16.84;18.76
72950;BME280;64868;45.710;9.590;2023-04-06T12:43:10;98972.47;;;17.31;19.09
72950;BME280;64868;45.710;9.590;2023-04-06T12:45:41;98979.81;;;18.11;19.00
72950;BME280;64868;45.710;9.590;2023-04-06T12:48:11;98932.03;;;17.13;19.18
72950;BME280;64868;45.710;9.590;2023-04-06T12:50:43;98972.72;;;17.19;19.21
72950;BME280;64868;45.710;9.590;2023-04-06T12:53:16;98958.31;;;16.80;19.21
72950;BME280;64868;45.710;9.590;2023-04-06T12:55:46;98977.97;;;17.58;19.34
72950;BME280;64868;45.710;9.590;2023-04-06T12:58:19;98969.19;;;17.98;19.14
72950;BME280;64868;45.710;9.590;2023-04-06T13:00:54;98937.38;;;17.86;18.84
72950;BME280;64868;45.710;9.590;2023-04-06T13:03:23;98897.63;;;18.23;18.55
72950;BME280;64868;45.710;9.590;2023-04-06T13:05:52;98920.09;;;18.36;17.48
72950;BME280;64868;45.710;9.590;2023-04-06T13:08:22;98932.84;;;18.29;18.59
72950;BME280;64868;45.710;9.590;2023-04-06T13:10:52;98951.34;;;18.37;19.00
72950;BME280;64868;45.710;9.590;2023-04-06T13:13:26;98919.81;;;18.74;18.20
72950;BME280;64868;45.710;9.590;2023-04-06T13:16:04;98942.78;;;18.22;18.93
72950;BME280;64868;45.710;9.590;2023-04-06T13:18:35;98935.59;;;18.03;19.24
72950;BME280;64868;45.710;9.590;2023-04-06T13:21:08;98924.78;;;17.30;18.52
72950;BME280;64868;45.710;9.590;2023-04-06T13:23:36;98934.06;;;17.65;18.43
72950;BME280;64868;45.710;9.590;2023-04-06T13:26:07;98923.63;;;17.50;18.83
72950;BME280;64868;45.710;9.590;2023-04-06T13:28:37;98933.50;;;17.61;19.59
72950;BME280;64868;45.710;9.590;2023-04-06T13:31:10;98932.34;;;17.28;20.12
72950;BME280;64868;45.710;9.590;2023-04-06T13:33:43;98889.81;;;16.67;21.22
72950;BME280;64868;45.710;9.590;2023-04-06T13:36:13;98861.50;;;16.29;20.46